sensor_id;sensor_type;location;lat;lon;timestamp;P1;durP1;ratioP1;P2;durP2;ratioP2
4921;SDS011;16625;53.624;10.106;2023-03-24T00:01:21;12.20;;;7.07;;
4921;SDS011;16625;53.624;10.106;2023-03-24T00:04:04;11.97;;;5.90;;
4921;SDS011;16625;53.624;10.106;2023-03-24T00:06:31;14.23;;;6.50;;
4921;SDS011;16625;53.624;10.106;2023-03-24T00:09:01;7.97;;;5.60;;
4921;SDS011;16625;53.624;10.106;2023-03-24T00:11:33;7.83;;;5.27;;
4921;SDS011;16625;53.624;10.106;2023-03-24T00:14:00;9.97;;;6.80;;
4921;SDS011;16625;53.624;10.106;2023-03-24T00:16:28;12.00;;;5.80;;
4921;SDS011;16625;53.624;10.106;2023-03-24T00:18:58;9.23;;;5.87;;
4921;SDS011;16625;53.624;10.106;2023-03-24T00:21:26;10.90;;;5.67;;
4921;SDS011;16625;53.624;10.106;2023-03-24T00:26:48;8.70;;;5.33;;
4921;SDS011;16625;53.624;10.106;2023-03-24T00:29:16;6.93;;;5.10;;
4921;SDS011;16625;53.624;10.106;2023-03-24T00:31:46;13.47;;;4.97;;
4921;SDS011;16625;53.624;10.106;2023-03-24T00:34:17;10.93;;;5.00;;
4921;SDS011;16625;53.624;10.106;2023-03-24T00:36:46;7.20;;;5.17;;
4921;SDS011;16625;53.624;10.106;2023-03-24T00:39:15;9.13;;;5.10;;
4921;SDS011;16625;53.624;10.106;2023-03-24T00:41:42;7.67;;;5.17;;
4921;SDS011;16625;53.624;10.106;2023-03-24T00:44:13;6.80;;;4.23;;
4921;SDS011;16625;53.624;10.106;2023-03-24T00:46:43;7.50;;;4.80;;
4921;SDS011;16625;53.624;10.106;2023-03-24T00:49:19;6.90;;;4.03;;
4921;SDS011;16625;53.624;10.106;2023-03-24T00:52:06;7.83;;;5.33;;
4921;SDS011;16625;53.624;10.106;2023-03-24T00:54:35;8.43;;;4.63;;
4921;SDS011;16625;53.624;10.106;2023-03-24T00:57:04;8.03;;;5.07;;
4921;SDS011;16625;53.624;10.106;2023-03-24T00:59:35;8.97;;;4.27;;
4921;SDS011;16625;53.624;10.106;2023-03-24T01:02:06;11.60;;;5.53;;
4921;SDS011;16625;53.624;10.106;2023-03-24T01:04:36;8.17;;;4.37;;
4921;SDS011;16625;53.624;10.106;2023-03-24T01:07:03;11.03;;;5.23;;
4921;SDS011;16625;53.624;10.106;2023-03-24T01:09:32;8.10;;;4.80;;
4921;SDS011;16625;53.624;10.106;2023-03-24T01:12:00;6.40;;;3.90;;
4921;SDS011;16625;53.624;10.106;2023-03-24T01:14:28;6.97;;;4.33;;
4921;SDS011;16625;53.624;10.106;2023-03-24T01:16:57;6.80;;;3.70;;
4921;SDS011;16625;53.624;10.106;2023-03-24T01:19:25;11.53;;;4.80;;
4921;SDS011;16625;53.624;10.106;2023-03-24T01:21:53;9.17;;;4.43;;
4921;SDS011;16625;53.624;10.106;2023-03-24T01:24:21;6.10;;;4.00;;
4921;SDS011;16625;53.624;10.106;2023-03-24T01:26:57;8.17;;;4.20;;
4921;SDS011;16625;53.624;10.106;2023-03-24T01:29:40;13.20;;;4.40;;
4921;SDS011;16625;53.624;10.106;2023-03-24T01:32:13;6.90;;;4.23;;
4921;SDS011;16625;53.624;10.106;2023-03-24T01:34:41;8.70;;;3.97;;
4921;SDS011;16625;53.624;10.106;2023-03-24T01:37:23;7.27;;;5.17;;
4921;SDS011;16625;53.624;10.106;2023-03-24T01:39:54;9.67;;;3.97;;
4921;SDS011;16625;53.624;10.106;2023-03-24T01:42:22;7.37;;;4.50;;
4921;SDS011;16625;53.624;10.106;2023-03-24T01:44:52;5.90;;;3.90;;
4921;SDS011;16625;53.624;10.106;2023-03-24T01:47:24;11.30;;;3.87;;
4921;SDS011;16625;53.624;10.106;2023-03-24T01:49:52;9.17;;;3.97;;
4921;SDS011;16625;53.624;10.106;2023-03-24T01:52:24;8.40;;;5.07;;
4921;SDS011;16625;53.624;10.106;2023-03-24T01:54:55;5.47;;;4.30;;
4921;SDS011;16625;53.624;10.106;2023-03-24T01:57:28;5.50;;;3.80;;
4921;SDS011;16625;53.624;10.106;2023-03-24T01:59:58;7.40;;;4.10;;
4921;SDS011;16625;53.624;10.106;2023-03-24T02:02:34;4.30;;;3.30;;
4921;SDS011;16625;53.624;10.106;2023-03-24T02:05:05;13.73;;;4.40;;
4921;SDS011;16625;53.624;10.106;2023-03-24T02:07:38;11.90;;;3.80;;
4921;SDS011;16625;53.624;10.106;2023-03-24T02:10:10;4.80;;;4.23;;
4921;SDS011;16625;53.624;10.106;2023-03-24T02:12:39;6.03;;;4.27;;
4921;SDS011;16625;53.624;10.106;2023-03-24T02:15:09;7.07;;;4.47;;
4921;SDS011;16625;53.624;10.106;2023-03-24T02:17:57;10.60;;;4.07;;
4921;SDS011;16625;53.624;10.106;2023-03-24T02:23:43;7.53;;;4.40;;
4921;SDS011;16625;53.624;10.106;2023-03-24T02:26:58;10.50;;;4.20;;
4921;SDS011;16625;53.624;10.106;2023-03-24T02:29:48;10.60;;;4.80;;
4921;SDS011;16625;53.624;10.106;2023-03-24T02:35:56;5.80;;;3.53;;
4921;SDS011;16625;53.624;10.106;2023-03-24T02:38:47;7.10;;;4.30;;
4921;SDS011;16625;53.624;10.106;2023-03-24T02:41:49;6.67;;;4.10;;
4921;SDS011;16625;53.624;10.106;2023-03-24T02:44:40;4.57;;;3.50;;
4921;SDS011;16625;53.624;10.106;2023-03-24T02:47:19;4.70;;;3.50;;
4921;SDS011;16625;53.624;10.106;2023-03-24T02:49:53;7.83;;;4.50;;
4921;SDS011;16625;53.624;10.106;2023-03-24T02:52:28;5.67;;;3.77;;
4921;SDS011;16625;53.624;10.106;2023-03-24T02:55:05;11.63;;;4.90;;
4921;SDS011;16625;53.624;10.106;2023-03-24T02:57:39;8.80;;;3.87;;
4921;SDS011;16625;53.624;10.106;2023-03-24T03:00:18;9.37;;;4.80;;
4921;SDS011;16625;53.624;10.106;2023-03-24T03:03:16;6.73;;;4.27;;
4921;SDS011;16625;53.624;10.106;2023-03-24T03:06:02;8.23;;;3.83;;
4921;SDS011;16625;53.624;10.106;2023-03-24T03:08:38;10.00;;;4.33;;
4921;SDS011;16625;53.624;10.106;2023-03-24T03:11:08;10.27;;;4.00;;
4921;SDS011;16625;53.624;10.106;2023-03-24T03:13:51;8.43;;;4.00;;
4921;SDS011;16625;53.624;10.106;2023-03-24T03:16:20;9.07;;;3.33;;
4921;SDS011;16625;53.624;10.106;2023-03-24T03:19:02;6.77;;;4.57;;
4921;SDS011;16625;53.624;10.106;2023-03-24T03:21:42;5.77;;;3.73;;
4921;SDS011;16625;53.624;10.106;2023-03-24T03:24:20;4.47;;;3.20;;
4921;SDS011;16625;53.624;10.106;2023-03-24T03:26:59;8.93;;;4.47;;
4921;SDS011;16625;53.624;10.106;2023-03-24T03:29:47;6.03;;;4.00;;
4921;SDS011;16625;53.624;10.106;2023-03-24T03:32:24;8.90;;;4.50;;
4921;SDS011;16625;53.624;10.106;2023-03-24T03:35:07;7.43;;;4.10;;
4921;SDS011;16625;53.624;10.106;2023-03-24T03:37:40;5.83;;;4.57;;
4921;SDS011;16625;53.624;10.106;2023-03-24T03:40:16;7.73;;;4.17;;
4921;SDS011;16625;53.624;10.106;2023-03-24T03:42:48;15.17;;;4.63;;
4921;SDS011;16625;53.624;10.106;2023-03-24T03:45:19;8.50;;;4.03;;
4921;SDS011;16625;53.624;10.106;2023-03-24T03:47:46;11.40;;;4.20;;
4921;SDS011;16625;53.624;10.106;2023-03-24T03:50:15;11.17;;;3.70;;
4921;SDS011;16625;53.624;10.106;2023-03-24T03:52:43;8.80;;;5.33;;
4921;SDS011;16625;53.624;10.106;2023-03-24T03:55:10;6.03;;;4.00;;
4921;SDS011;16625;53.624;10.106;2023-03-24T03:57:37;9.70;;;4.60;;
4921;SDS011;16625;53.624;10.106;2023-03-24T04:00:07;9.10;;;4.70;;
4921;SDS011;16625;53.624;10.106;2023-03-24T04:02:44;7.80;;;4.90;;
4921;SDS011;16625;53.624;10.106;2023-03-24T04:05:26;9.57;;;5.67;;
4921;SDS011;16625;53.624;10.106;2023-03-24T04:08:03;9.93;;;5.63;;
4921;SDS011;16625;53.624;10.106;2023-03-24T04:10:42;13.40;;;4.63;;
4921;SDS011;16625;53.624;10.106;2023-03-24T04:13:25;6.70;;;5.83;;
4921;SDS011;16625;53.624;10.106;2023-03-24T04:16:00;9.50;;;5.13;;
4921;SDS011;16625;53.624;10.106;2023-03-24T04:18:48;9.83;;;6.03;;
4921;SDS011;16625;53.624;10.106;2023-03-24T04:21:27;6.63;;;4.70;;
4921;SDS011;16625;53.624;10.106;2023-03-24T04:24:06;6.33;;;4.70;;
4921;SDS011;16625;53.624;10.106;2023-03-24T04:26:53;8.40;;;5.07;;
4921;SDS011;16625;53.624;10.106;2023-03-24T04:29:28;13.30;;;5.30;;
4921;SDS011;16625;53.624;10.106;2023-03-24T04:32:01;7.07;;;5.33;;
4921;SDS011;16625;53.624;10.106;2023-03-24T04:34:37;12.17;;;4.90;;
4921;SDS011;16625;53.624;10.106;2023-03-24T04:37:09;8.13;;;4.67;;
4921;SDS011;16625;53.624;10.106;2023-03-24T04:39:45;7.07;;;4.60;;
4921;SDS011;16625;53.624;10.106;2023-03-24T04:42:18;11.13;;;5.67;;
4921;SDS011;16625;53.624;10.106;2023-03-24T04:44:49;10.33;;;5.20;;
4921;SDS011;16625;53.624;10.106;2023-03-24T04:47:17;7.03;;;5.30;;
4921;SDS011;16625;53.624;10.106;2023-03-24T04:52:35;6.20;;;5.30;;
4921;SDS011;16625;53.624;10.106;2023-03-24T04:55:11;10.70;;;5.30;;
4921;SDS011;16625;53.624;10.106;2023-03-24T04:58:07;7.23;;;4.90;;
4921;SDS011;16625;53.624;10.106;2023-03-24T05:00:34;11.73;;;5.33;;
4921;SDS011;16625;53.624;10.106;2023-03-24T05:03:02;6.23;;;4.27;;
4921;SDS011;16625;53.624;10.106;2023-03-24T05:05:31;13.80;;;5.37;;
4921;SDS011;16625;53.624;10.106;2023-03-24T05:07:58;7.70;;;5.00;;
4921;SDS011;16625;53.624;10.106;2023-03-24T05:10:26;9.90;;;5.00;;
4921;SDS011;16625;53.624;10.106;2023-03-24T05:12:53;14.63;;;5.53;;
4921;SDS011;16625;53.624;10.106;2023-03-24T05:15:20;9.33;;;5.07;;
4921;SDS011;16625;53.624;10.106;2023-03-24T05:17:47;10.07;;;5.63;;
4921;SDS011;16625;53.624;10.106;2023-03-24T05:20:15;7.70;;;5.27;;
4921;SDS011;16625;53.624;10.106;2023-03-24T05:22:46;7.07;;;5.30;;
4921;SDS011;16625;53.624;10.106;2023-03-24T05:25:14;6.50;;;5.40;;
4921;SDS011;16625;53.624;10.106;2023-03-24T05:27:41;8.37;;;4.47;;
4921;SDS011;16625;53.624;10.106;2023-03-24T05:30:13;6.80;;;5.50;;
4921;SDS011;16625;53.624;10.106;2023-03-24T05:32:41;8.33;;;4.87;;
4921;SDS011;16625;53.624;10.106;2023-03-24T05:35:11;12.40;;;5.60;;
4921;SDS011;16625;53.624;10.106;2023-03-24T05:37:38;5.23;;;4.70;;
4921;SDS011;16625;53.624;10.106;2023-03-24T05:40:11;11.00;;;4.93;;
4921;SDS011;16625;53.624;10.106;2023-03-24T05:42:39;6.07;;;4.10;;
4921;SDS011;16625;53.624;10.106;2023-03-24T05:45:07;8.93;;;4.70;;
4921;SDS011;16625;53.624;10.106;2023-03-24T05:47:41;10.10;;;5.10;;
4921;SDS011;16625;53.624;10.106;2023-03-24T05:50:09;6.43;;;4.90;;
4921;SDS011;16625;53.624;10.106;2023-03-24T05:52:36;9.53;;;4.70;;
4921;SDS011;16625;53.624;10.106;2023-03-24T05:55:03;7.30;;;4.53;;
4921;SDS011;16625;53.624;10.106;2023-03-24T05:57:36;9.17;;;5.50;;
4921;SDS011;16625;53.624;10.106;2023-03-24T06:00:04;15.90;;;5.03;;
4921;SDS011;16625;53.624;10.106;2023-03-24T06:02:34;6.73;;;4.80;;
4921;SDS011;16625;53.624;10.106;2023-03-24T06:05:01;7.17;;;4.90;;
4921;SDS011;16625;53.624;10.106;2023-03-24T06:07:29;9.53;;;6.03;;
4921;SDS011;16625;53.624;10.106;2023-03-24T06:09:56;8.30;;;7.00;;
4921;SDS011;16625;53.624;10.106;2023-03-24T06:12:27;13.20;;;5.40;;
4921;SDS011;16625;53.624;10.106;2023-03-24T06:14:55;8.30;;;5.77;;
4921;SDS011;16625;53.624;10.106;2023-03-24T06:17:23;6.00;;;5.40;;
4921;SDS011;16625;53.624;10.106;2023-03-24T06:19:52;10.47;;;5.27;;
4921;SDS011;16625;53.624;10.106;2023-03-24T06:22:27;9.80;;;4.77;;
4921;SDS011;16625;53.624;10.106;2023-03-24T06:24:58;9.50;;;5.17;;
4921;SDS011;16625;53.624;10.106;2023-03-24T06:27:26;10.03;;;4.30;;
4921;SDS011;16625;53.624;10.106;2023-03-24T06:29:56;6.40;;;5.60;;
4921;SDS011;16625;53.624;10.106;2023-03-24T06:32:25;8.07;;;5.43;;
4921;SDS011;16625;53.624;10.106;2023-03-24T06:34:53;9.50;;;5.03;;
4921;SDS011;16625;53.624;10.106;2023-03-24T06:37:21;7.07;;;5.60;;
4921;SDS011;16625;53.624;10.106;2023-03-24T06:39:51;8.13;;;4.83;;
4921;SDS011;16625;53.624;10.106;2023-03-24T06:42:18;5.63;;;4.30;;
4921;SDS011;16625;53.624;10.106;2023-03-24T06:44:45;6.17;;;4.57;;
4921;SDS011;16625;53.624;10.106;2023-03-24T06:47:13;5.47;;;4.10;;
4921;SDS011;16625;53.624;10.106;2023-03-24T06:49:41;6.03;;;4.30;;
4921;SDS011;16625;53.624;10.106;2023-03-24T06:52:08;5.63;;;4.43;;
4921;SDS011;16625;53.624;10.106;2023-03-24T06:54:37;6.07;;;4.13;;
4921;SDS011;16625;53.624;10.106;2023-03-24T06:57:04;5.63;;;3.97;;
4921;SDS011;16625;53.624;10.106;2023-03-24T06:59:34;4.47;;;4.07;;
4921;SDS011;16625;53.624;10.106;2023-03-24T07:02:04;4.10;;;3.70;;
4921;SDS011;16625;53.624;10.106;2023-03-24T07:04:33;5.93;;;4.40;;
4921;SDS011;16625;53.624;10.106;2023-03-24T07:07:02;5.70;;;3.90;;
4921;SDS011;16625;53.624;10.106;2023-03-24T07:09:30;5.33;;;4.77;;
4921;SDS011;16625;53.624;10.106;2023-03-24T07:11:57;10.90;;;4.03;;
4921;SDS011;16625;53.624;10.106;2023-03-24T07:14:27;6.03;;;3.90;;
4921;SDS011;16625;53.624;10.106;2023-03-24T07:20:10;7.50;;;4.83;;
4921;SDS011;16625;53.624;10.106;2023-03-24T07:22:40;7.40;;;4.53;;
4921;SDS011;16625;53.624;10.106;2023-03-24T07:25:07;4.57;;;4.03;;
4921;SDS011;16625;53.624;10.106;2023-03-24T07:27:34;4.60;;;3.50;;
4921;SDS011;16625;53.624;10.106;2023-03-24T07:30:02;4.67;;;3.40;;
4921;SDS011;16625;53.624;10.106;2023-03-24T07:32:29;5.17;;;3.20;;
4921;SDS011;16625;53.624;10.106;2023-03-24T07:34:58;8.70;;;4.23;;
4921;SDS011;16625;53.624;10.106;2023-03-24T07:37:30;5.40;;;3.37;;
4921;SDS011;16625;53.624;10.106;2023-03-24T07:39:57;5.03;;;2.87;;
4921;SDS011;16625;53.624;10.106;2023-03-24T07:42:24;6.40;;;2.90;;
4921;SDS011;16625;53.624;10.106;2023-03-24T07:44:54;3.83;;;3.07;;
4921;SDS011;16625;53.624;10.106;2023-03-24T07:47:21;4.60;;;2.90;;
4921;SDS011;16625;53.624;10.106;2023-03-24T07:49:48;2.67;;;2.40;;
4921;SDS011;16625;53.624;10.106;2023-03-24T07:52:15;2.40;;;2.13;;
4921;SDS011;16625;53.624;10.106;2023-03-24T07:54:44;8.67;;;3.23;;
4921;SDS011;16625;53.624;10.106;2023-03-24T07:57:12;3.20;;;2.13;;
4921;SDS011;16625;53.624;10.106;2023-03-24T07:59:39;3.40;;;2.13;;
4921;SDS011;16625;53.624;10.106;2023-03-24T08:02:15;9.80;;;2.87;;
4921;SDS011;16625;53.624;10.106;2023-03-24T08:04:51;2.43;;;1.90;;
4921;SDS011;16625;53.624;10.106;2023-03-24T08:07:22;3.07;;;2.07;;
4921;SDS011;16625;53.624;10.106;2023-03-24T08:10:07;4.33;;;2.40;;
4921;SDS011;16625;53.624;10.106;2023-03-24T08:16:00;4.47;;;1.80;;
4921;SDS011;16625;53.624;10.106;2023-03-24T08:19:17;5.87;;;2.00;;
4921;SDS011;16625;53.624;10.106;2023-03-24T08:24:51;16.00;;;2.90;;
4921;SDS011;16625;53.624;10.106;2023-03-24T08:27:24;8.00;;;2.60;;
4921;SDS011;16625;53.624;10.106;2023-03-24T08:30:03;7.07;;;2.33;;
4921;SDS011;16625;53.624;10.106;2023-03-24T08:32:31;8.90;;;2.50;;
4921;SDS011;16625;53.624;10.106;2023-03-24T08:34:59;8.37;;;2.40;;
4921;SDS011;16625;53.624;10.106;2023-03-24T08:37:28;10.90;;;2.50;;
4921;SDS011;16625;53.624;10.106;2023-03-24T08:39:56;6.13;;;2.37;;
4921;SDS011;16625;53.624;10.106;2023-03-24T08:42:38;6.80;;;2.70;;
4921;SDS011;16625;53.624;10.106;2023-03-24T08:45:10;3.90;;;1.70;;
4921;SDS011;16625;53.624;10.106;2023-03-24T08:47:37;18.80;;;2.83;;
4921;SDS011;16625;53.624;10.106;2023-03-24T08:50:06;4.73;;;2.10;;
4921;SDS011;16625;53.624;10.106;2023-03-24T08:52:34;3.83;;;2.03;;
4921;SDS011;16625;53.624;10.106;2023-03-24T08:55:02;7.63;;;3.13;;
4921;SDS011;16625;53.624;10.106;2023-03-24T08:57:31;8.00;;;2.00;;
4921;SDS011;16625;53.624;10.106;2023-03-24T09:00:00;14.70;;;2.20;;
4921;SDS011;16625;53.624;10.106;2023-03-24T09:02:33;6.20;;;2.17;;
4921;SDS011;16625;53.624;10.106;2023-03-24T09:05:00;5.67;;;2.47;;
4921;SDS011;16625;53.624;10.106;2023-03-24T09:07:27;9.33;;;3.10;;
4921;SDS011;16625;53.624;10.106;2023-03-24T09:09:54;4.80;;;2.50;;
4921;SDS011;16625;53.624;10.106;2023-03-24T09:12:21;11.03;;;2.80;;
4921;SDS011;16625;53.624;10.106;2023-03-24T09:14:50;7.40;;;2.93;;
4921;SDS011;16625;53.624;10.106;2023-03-24T09:17:17;6.90;;;3.20;;
4921;SDS011;16625;53.624;10.106;2023-03-24T09:19:44;6.40;;;2.43;;
4921;SDS011;16625;53.624;10.106;2023-03-24T09:22:11;11.47;;;2.43;;
4921;SDS011;16625;53.624;10.106;2023-03-24T09:24:38;8.63;;;2.80;;
4921;SDS011;16625;53.624;10.106;2023-03-24T09:27:05;5.93;;;2.47;;
4921;SDS011;16625;53.624;10.106;2023-03-24T09:29:32;10.40;;;2.53;;
4921;SDS011;16625;53.624;10.106;2023-03-24T09:32:02;9.23;;;2.13;;
4921;SDS011;16625;53.624;10.106;2023-03-24T09:34:30;5.80;;;2.00;;
4921;SDS011;16625;53.624;10.106;2023-03-24T09:36:58;5.73;;;2.20;;
4921;SDS011;16625;53.624;10.106;2023-03-24T09:39:25;9.80;;;3.30;;
4921;SDS011;16625;53.624;10.106;2023-03-24T09:41:53;13.97;;;2.33;;
4921;SDS011;16625;53.624;10.106;2023-03-24T09:44:22;9.27;;;2.23;;
4921;SDS011;16625;53.624;10.106;2023-03-24T09:46:53;3.70;;;1.60;;
4921;SDS011;16625;53.624;10.106;2023-03-24T09:49:29;4.70;;;2.50;;
4921;SDS011;16625;53.624;10.106;2023-03-24T09:52:01;8.67;;;2.30;;
4921;SDS011;16625;53.624;10.106;2023-03-24T09:54:33;10.20;;;2.13;;
4921;SDS011;16625;53.624;10.106;2023-03-24T09:57:09;4.50;;;2.73;;
4921;SDS011;16625;53.624;10.106;2023-03-24T09:59:41;7.33;;;2.23;;
4921;SDS011;16625;53.624;10.106;2023-03-24T10:02:09;6.83;;;2.47;;
4921;SDS011;16625;53.624;10.106;2023-03-24T10:04:38;14.83;;;2.77;;
4921;SDS011;16625;53.624;10.106;2023-03-24T10:07:08;10.60;;;2.37;;
4921;SDS011;16625;53.624;10.106;2023-03-24T10:09:44;6.67;;;2.77;;
4921;SDS011;16625;53.624;10.106;2023-03-24T10:12:19;4.90;;;2.20;;
4921;SDS011;16625;53.624;10.106;2023-03-24T10:15:06;7.80;;;2.10;;
4921;SDS011;16625;53.624;10.106;2023-03-24T10:17:45;6.03;;;2.53;;
4921;SDS011;16625;53.624;10.106;2023-03-24T10:20:23;6.33;;;2.37;;
4921;SDS011;16625;53.624;10.106;2023-03-24T10:22:58;11.40;;;2.73;;
4921;SDS011;16625;53.624;10.106;2023-03-24T10:25:34;7.87;;;2.50;;
4921;SDS011;16625;53.624;10.106;2023-03-24T10:28:13;9.73;;;2.60;;
4921;SDS011;16625;53.624;10.106;2023-03-24T10:30:47;13.03;;;2.37;;
4921;SDS011;16625;53.624;10.106;2023-03-24T10:33:16;7.83;;;2.07;;
4921;SDS011;16625;53.624;10.106;2023-03-24T10:35:49;4.97;;;1.93;;
4921;SDS011;16625;53.624;10.106;2023-03-24T10:38:21;9.03;;;2.30;;
4921;SDS011;16625;53.624;10.106;2023-03-24T10:40:49;12.47;;;2.40;;
4921;SDS011;16625;53.624;10.106;2023-03-24T10:43:17;7.50;;;2.50;;
4921;SDS011;16625;53.624;10.106;2023-03-24T10:45:46;24.73;;;3.90;;
4921;SDS011;16625;53.624;10.106;2023-03-24T10:51:02;14.50;;;3.10;;
4921;SDS011;16625;53.624;10.106;2023-03-24T10:53:30;3.87;;;1.73;;
4921;SDS011;16625;53.624;10.106;2023-03-24T10:55:58;4.57;;;2.00;;
4921;SDS011;16625;53.624;10.106;2023-03-24T10:58:28;6.97;;;2.60;;
4921;SDS011;16625;53.624;10.106;2023-03-24T11:01:01;11.83;;;2.50;;
4921;SDS011;16625;53.624;10.106;2023-03-24T11:03:31;6.63;;;2.90;;
4921;SDS011;16625;53.624;10.106;2023-03-24T11:06:03;6.50;;;2.40;;
4921;SDS011;16625;53.624;10.106;2023-03-24T11:08:32;5.37;;;2.57;;
4921;SDS011;16625;53.624;10.106;2023-03-24T11:11:05;6.43;;;2.57;;
4921;SDS011;16625;53.624;10.106;2023-03-24T11:13:53;6.70;;;3.40;;
4921;SDS011;16625;53.624;10.106;2023-03-24T11:16:25;14.67;;;2.70;;
4921;SDS011;16625;53.624;10.106;2023-03-24T11:18:54;9.13;;;3.57;;
4921;SDS011;16625;53.624;10.106;2023-03-24T11:21:24;9.67;;;3.00;;
4921;SDS011;16625;53.624;10.106;2023-03-24T11:23:55;5.30;;;2.00;;
4921;SDS011;16625;53.624;10.106;2023-03-24T11:26:27;10.87;;;2.37;;
4921;SDS011;16625;53.624;10.106;2023-03-24T11:28:57;4.80;;;2.23;;
4921;SDS011;16625;53.624;10.106;2023-03-24T11:31:27;6.23;;;3.10;;
4921;SDS011;16625;53.624;10.106;2023-03-24T11:33:56;8.60;;;2.70;;
4921;SDS011;16625;53.624;10.106;2023-03-24T11:39:18;4.97;;;1.90;;
4921;SDS011;16625;53.624;10.106;2023-03-24T11:44:44;6.83;;;2.67;;
4921;SDS011;16625;53.624;10.106;2023-03-24T11:47:15;2.60;;;1.80;;
4921;SDS011;16625;53.624;10.106;2023-03-24T11:49:49;7.87;;;3.17;;
4921;SDS011;16625;53.624;10.106;2023-03-24T11:52:24;5.77;;;2.17;;
4921;SDS011;16625;53.624;10.106;2023-03-24T11:54:56;9.67;;;2.27;;
4921;SDS011;16625;53.624;10.106;2023-03-24T11:57:26;9.67;;;3.00;;
4921;SDS011;16625;53.624;10.106;2023-03-24T12:00:06;6.07;;;2.00;;
4921;SDS011;16625;53.624;10.106;2023-03-24T12:02:43;9.83;;;2.77;;
4921;SDS011;16625;53.624;10.106;2023-03-24T12:05:24;8.87;;;2.30;;
4921;SDS011;16625;53.624;10.106;2023-03-24T12:08:03;20.10;;;3.07;;
4921;SDS011;16625;53.624;10.106;2023-03-24T12:10:52;8.10;;;2.30;;
4921;SDS011;16625;53.624;10.106;2023-03-24T12:13:31;7.13;;;2.60;;
4921;SDS011;16625;53.624;10.106;2023-03-24T12:16:04;8.97;;;2.77;;
4921;SDS011;16625;53.624;10.106;2023-03-24T12:22:05;8.93;;;2.03;;
4921;SDS011;16625;53.624;10.106;2023-03-24T12:24:47;6.83;;;2.30;;
4921;SDS011;16625;53.624;10.106;2023-03-24T12:27:33;14.83;;;3.27;;
4921;SDS011;16625;53.624;10.106;2023-03-24T12:30:11;8.90;;;2.60;;
4921;SDS011;16625;53.624;10.106;2023-03-24T12:32:46;8.60;;;3.03;;
4921;SDS011;16625;53.624;10.106;2023-03-24T12:35:24;15.40;;;2.70;;
4921;SDS011;16625;53.624;10.106;2023-03-24T12:38:10;5.83;;;2.80;;
4921;SDS011;16625;53.624;10.106;2023-03-24T12:41:04;9.27;;;2.83;;
4921;SDS011;16625;53.624;10.106;2023-03-24T12:43:59;7.50;;;2.80;;
4921;SDS011;16625;53.624;10.106;2023-03-24T12:46:38;9.10;;;2.50;;
4921;SDS011;16625;53.624;10.106;2023-03-24T12:49:15;9.37;;;3.13;;
4921;SDS011;16625;53.624;10.106;2023-03-24T12:51:53;14.90;;;3.57;;
4921;SDS011;16625;53.624;10.106;2023-03-24T12:54:29;8.07;;;2.93;;
4921;SDS011;16625;53.624;10.106;2023-03-24T12:57:02;11.70;;;2.73;;
4921;SDS011;16625;53.624;10.106;2023-03-24T12:59:33;11.60;;;2.50;;
4921;SDS011;16625;53.624;10.106;2023-03-24T13:02:08;8.00;;;2.43;;
4921;SDS011;16625;53.624;10.106;2023-03-24T13:04:45;5.70;;;2.30;;
4921;SDS011;16625;53.624;10.106;2023-03-24T13:07:16;8.67;;;2.57;;
4921;SDS011;16625;53.624;10.106;2023-03-24T13:09:47;9.80;;;2.53;;
4921;SDS011;16625;53.624;10.106;2023-03-24T13:12:21;6.83;;;2.70;;
4921;SDS011;16625;53.624;10.106;2023-03-24T13:14:53;7.00;;;2.73;;
4921;SDS011;16625;53.624;10.106;2023-03-24T13:17:29;6.90;;;2.40;;
4921;SDS011;16625;53.624;10.106;2023-03-24T13:19:58;7.63;;;2.10;;
4921;SDS011;16625;53.624;10.106;2023-03-24T13:22:30;20.67;;;2.73;;
4921;SDS011;16625;53.624;10.106;2023-03-24T13:25:01;10.70;;;2.70;;
4921;SDS011;16625;53.624;10.106;2023-03-24T13:27:39;10.93;;;2.50;;
4921;SDS011;16625;53.624;10.106;2023-03-24T13:30:13;5.80;;;2.20;;
4921;SDS011;16625;53.624;10.106;2023-03-24T13:32:51;11.30;;;2.70;;
4921;SDS011;16625;53.624;10.106;2023-03-24T13:35:26;7.57;;;2.73;;
4921;SDS011;16625;53.624;10.106;2023-03-24T13:38:05;9.83;;;2.43;;
4921;SDS011;16625;53.624;10.106;2023-03-24T13:40:43;5.10;;;2.30;;
4921;SDS011;16625;53.624;10.106;2023-03-24T13:43:17;13.10;;;3.03;;
4921;SDS011;16625;53.624;10.106;2023-03-24T13:45:47;11.13;;;2.70;;
4921;SDS011;16625;53.624;10.106;2023-03-24T13:48:26;9.40;;;2.57;;
4921;SDS011;16625;53.624;10.106;2023-03-24T13:50:59;8.13;;;2.87;;
4921;SDS011;16625;53.624;10.106;2023-03-24T13:53:43;9.40;;;2.50;;
4921;SDS011;16625;53.624;10.106;2023-03-24T13:56:20;7.03;;;2.63;;
4921;SDS011;16625;53.624;10.106;2023-03-24T14:02:15;4.57;;;1.90;;
4921;SDS011;16625;53.624;10.106;2023-03-24T14:04:48;5.77;;;2.10;;
4921;SDS011;16625;53.624;10.106;2023-03-24T14:07:29;15.53;;;2.40;;
4921;SDS011;16625;53.624;10.106;2023-03-24T14:10:00;6.40;;;2.10;;
4921;SDS011;16625;53.624;10.106;2023-03-24T14:12:30;6.83;;;1.93;;
4921;SDS011;16625;53.624;10.106;2023-03-24T14:15:14;7.60;;;2.17;;
4921;SDS011;16625;53.624;10.106;2023-03-24T14:17:45;6.50;;;2.10;;
4921;SDS011;16625;53.624;10.106;2023-03-24T14:20:24;7.90;;;2.30;;
4921;SDS011;16625;53.624;10.106;2023-03-24T14:22:53;8.17;;;2.40;;
4921;SDS011;16625;53.624;10.106;2023-03-24T14:25:23;7.10;;;2.13;;
4921;SDS011;16625;53.624;10.106;2023-03-24T14:27:52;6.33;;;2.70;;
4921;SDS011;16625;53.624;10.106;2023-03-24T14:30:32;6.13;;;2.23;;
4921;SDS011;16625;53.624;10.106;2023-03-24T14:33:03;8.40;;;2.53;;
4921;SDS011;16625;53.624;10.106;2023-03-24T14:35:32;11.57;;;2.47;;
4921;SDS011;16625;53.624;10.106;2023-03-24T14:38:02;8.57;;;2.70;;
4921;SDS011;16625;53.624;10.106;2023-03-24T14:40:33;4.97;;;2.40;;
4921;SDS011;16625;53.624;10.106;2023-03-24T14:43:11;4.07;;;1.90;;
4921;SDS011;16625;53.624;10.106;2023-03-24T14:48:32;12.77;;;2.93;;
4921;SDS011;16625;53.624;10.106;2023-03-24T14:51:11;5.70;;;2.30;;
4921;SDS011;16625;53.624;10.106;2023-03-24T15:24:50;5.60;;;2.90;;
4921;SDS011;16625;53.624;10.106;2023-03-24T15:28:51;14.47;;;2.50;;
4921;SDS011;16625;53.624;10.106;2023-03-24T15:31:14;11.07;;;2.30;;
4921;SDS011;16625;53.624;10.106;2023-03-24T15:34:40;6.03;;;2.30;;
4921;SDS011;16625;53.624;10.106;2023-03-24T16:20:49;4.17;;;1.90;;
4921;SDS011;16625;53.624;10.106;2023-03-24T16:23:20;6.30;;;2.00;;
4921;SDS011;16625;53.624;10.106;2023-03-24T16:25:49;7.33;;;2.60;;
4921;SDS011;16625;53.624;10.106;2023-03-24T16:28:18;3.17;;;1.73;;
4921;SDS011;16625;53.624;10.106;2023-03-24T16:31:10;6.63;;;2.23;;
4921;SDS011;16625;53.624;10.106;2023-03-24T16:33:54;6.93;;;2.40;;
4921;SDS011;16625;53.624;10.106;2023-03-24T16:36:25;15.57;;;3.40;;
4921;SDS011;16625;53.624;10.106;2023-03-24T16:38:54;5.40;;;1.83;;
4921;SDS011;16625;53.624;10.106;2023-03-24T16:41:31;7.20;;;2.20;;
4921;SDS011;16625;53.624;10.106;2023-03-24T16:44:03;14.23;;;2.87;;
4921;SDS011;16625;53.624;10.106;2023-03-24T16:46:31;13.53;;;2.77;;
4921;SDS011;16625;53.624;10.106;2023-03-24T16:48:59;8.90;;;2.77;;
4921;SDS011;16625;53.624;10.106;2023-03-24T16:51:31;9.10;;;2.63;;
4921;SDS011;16625;53.624;10.106;2023-03-24T16:53:58;6.23;;;2.43;;
4921;SDS011;16625;53.624;10.106;2023-03-24T16:56:25;7.77;;;3.30;;
4921;SDS011;16625;53.624;10.106;2023-03-24T16:58:55;9.80;;;2.60;;
4921;SDS011;16625;53.624;10.106;2023-03-24T17:01:26;8.47;;;2.70;;
4921;SDS011;16625;53.624;10.106;2023-03-24T17:03:57;8.93;;;3.30;;
4921;SDS011;16625;53.624;10.106;2023-03-24T17:06:28;7.77;;;2.93;;
4921;SDS011;16625;53.624;10.106;2023-03-24T17:08:57;9.10;;;2.70;;
4921;SDS011;16625;53.624;10.106;2023-03-24T17:11:31;13.60;;;3.13;;
4921;SDS011;16625;53.624;10.106;2023-03-24T17:13:59;5.80;;;2.70;;
4921;SDS011;16625;53.624;10.106;2023-03-24T17:16:34;9.13;;;2.90;;